Station VDXA2 - Valdez, AK Image indicating link to RSS feed of recent meteorological observations for station VDXA2


Conditions at VDXA2 as of
(11:35 pm AKDT on 05/21/2024)
0735 GMT on 05/22/2024:
     

Click on the graph icon in the table below to see a time series plot of the last five days of that observation.

5-day plot - Wind Direction Wind Direction (WDIR): SE ( 130 deg true )
5-day plot - Wind Speed Wind Speed (WSPD): 3 kts
5-day plot - Wind Gust Wind Gust (GST): 5 kts
5-day plot - Air Temperature Air Temperature (ATMP): 41.0 °F
5-day plot - Dew Point Dew Point (DEWP): 40.6 °F
5-day plot - Wind Chill Wind Chill (CHILL): 39.0 °F
5-day plot - Wind Speed at 10 Meters Wind Speed at 10 meters (WSPD10M): 4 kts
5-day plot - Wind Speed at 20 Meters Wind Speed at 20 meters (WSPD20M): 4 kts
5-day plot -  Wind Speed, Wind Gust and Atmospheric Pressure Combined plot of Wind Speed, Gust, and Air Pressure
Previous observations
TIME
(AKDT)
5-day plot - Wind Direction
WDIR
 
5-day plot - Wind Speed
WSPD
kts
5-day plot - Wind Gust
GST
kts
5-day plot - Wave Height
WVHT
ft
5-day plot - Dominant Wave Period
DPD
sec
5-day plot - Average Wave Period
APD
sec
5-day plot - Mean Wave Direction
MWD
 
5-day plot - Atmospheric Pressure
PRES
in
5-day plot - Pressure Tendency
PTDY
in
5-day plot - Air Temperature
ATMP
°F
5-day plot - Water Temperature
WTMP
°F
5-day plot - Dew Point
DEWP
°F
5-day plot - Salinity
SAL
psu
5-day plot - Visibility
VIS
nmi
5-day plot - Tide (above MLLW)
TIDE
ft
2024-05-21 11:25 pm SE 2 4------ 41.0- 40.3---
2024-05-21 11:15 pm SE 3 5------ 41.0- 39.9---
2024-05-21 11:04 pm SE 3 6------ 41.0- 39.9---
2024-05-21 10:54 pm SE 4 8------ 41.2- 39.9---
2024-05-21 10:45 pm SE 4 7------ 41.4- 40.5---
2024-05-21 10:35 pmESE 3 7------ 41.5- 40.8---
2024-05-21 10:24 pmESE 3 6------ 41.5- 40.3---
2024-05-21 10:14 pmESE 4 9------ 41.5- 39.7---
2024-05-21 10:05 pmESE 4 9------ 41.5- 39.7---
2024-05-21 09:54 pmESE 5 8------ 41.7- 39.9---
2024-05-21 09:44 pmESE 5 9------ 41.9- 40.3---
2024-05-21 09:35 pm SE 2 6------ 42.1- 40.8---
2024-05-21 09:25 pm S 1 4------ 42.3- 41.2---
2024-05-21 09:14 pmSSE 2 5------ 42.3- 41.2---
2024-05-21 09:04 pmSSW 2 5------ 42.3- 41.2---
2024-05-21 08:55 pm SW 3 6------ 42.4- 41.4---
2024-05-21 08:45 pmWSW 4 8------ 42.4- 41.4---
2024-05-21 08:35 pm W 4 8------ 42.4- 41.4---
2024-05-21 08:25 pm W 4 7------ 42.4- 41.2---
2024-05-21 08:15 pm W 4 7------ 42.4- 41.2---
2024-05-21 08:05 pm W 5 10------ 42.4- 41.2---
2024-05-21 07:54 pmWNW 5 9------ 42.4- 41.0---
2024-05-21 07:45 pm W 4 7------ 42.6- 41.0---
2024-05-21 07:35 pm W 4 7------ 42.8- 41.4---
2024-05-21 07:24 pm W 3 6------ 43.0- 41.4---
2024-05-21 07:15 pmWSW 4 8------ 43.2- 41.5---
2024-05-21 07:04 pmWSW 4 8------ 43.2- 41.4---
2024-05-21 06:54 pmWSW 5 10------ 43.2- 41.4---
2024-05-21 06:45 pmWSW 4 8------ 42.8- 41.2---
2024-05-21 06:34 pmWSW 4 8------ 42.8- 41.2---
2024-05-21 06:24 pmWSW 4 9------ 42.8- 41.4---
2024-05-21 06:15 pmWSW 4 8------ 42.8- 41.2---
2024-05-21 06:05 pmWSW 4 8------ 43.2- 41.7---
2024-05-21 05:55 pmWSW 5 10------ 43.3- 42.1---
2024-05-21 05:45 pmWSW 5 10------ 43.3- 41.9---
2024-05-21 05:35 pmWSW 6 12------ 43.7- 41.9---
2024-05-21 05:25 pm SW 6 13------ 44.1- 42.3---
2024-05-21 05:15 pmWSW 5 12------ 44.2- 42.8---
2024-05-21 05:05 pm SW 7 12------ 44.2- 42.6---
2024-05-21 04:54 pm SW 7 12------ 44.4- 42.8---
2024-05-21 04:44 pmWSW 6 12------ 44.8- 43.3---
2024-05-21 04:34 pmWSW 6 8------ 45.1- 43.7---
2024-05-21 04:24 pm W 6 7------ 45.1- 43.5---
2024-05-21 04:15 pmWSW 5 10------ 45.3- 43.2---
2024-05-21 03:54 pmWSW 6 11------ 45.9- 44.1---
2024-05-21 03:45 pmWSW 6 11------ 45.9- 44.4---
2024-05-21 03:35 pmWSW 7 14------ 46.0- 44.6---
2024-05-21 03:25 pmWSW 7 13------ 46.4- 44.8---
2024-05-21 03:14 pmWSW 8 15------ 46.6- 44.2---
2024-05-21 03:04 pmWSW 8 14------ 46.9- 44.2---
2024-05-21 02:55 pmWSW 9 15------ 47.7- 43.9---
2024-05-21 02:45 pm SW 9 16------ 48.6- 43.7---
2024-05-21 02:35 pm SW 9 17------ 48.6- 43.5---
2024-05-21 02:25 pm SW 10 18------ 48.6- 43.5---
2024-05-21 02:14 pm SW 11 17------ 48.4- 43.7---
2024-05-21 02:05 pm SW 11 16------ 48.6- 43.7---
2024-05-21 01:54 pm SW 11 17------ 48.4- 43.7---
2024-05-21 01:45 pm SW 11 16------ 48.4- 43.7---
2024-05-21 01:34 pm SW 10 15------ 48.4- 43.7---
2024-05-21 01:25 pm SW 10 16------ 48.4- 43.7---
2024-05-21 01:14 pm SW 9 15------ 48.6- 43.9---
2024-05-21 01:05 pm SW 8 12------ 48.9- 44.1---
2024-05-21 12:55 pm SW 9 15------ 48.7- 43.9---
2024-05-21 12:44 pmWSW 6 13------ 49.5- 44.4---
2024-05-21 12:35 pmWSW 5 9------ 49.8- 44.6---
2024-05-21 12:24 pm SW 7 14------ 49.3- 44.4---
2024-05-21 12:14 pmWSW 6 12------ 49.5- 44.4---
2024-05-21 12:05 pm SW 6 12------ 49.5- 44.6---
2024-05-21 11:55 am SW 7 12------ 49.5- 44.4---
2024-05-21 11:45 am SW 6 11------ 49.6- 44.6---
2024-05-21 11:35 am SW 9 13------ 48.6- 44.1---
2024-05-21 11:25 amSSW 7 12------ 48.7- 44.2---
2024-05-21 11:15 am S 3 6------ 49.1- 44.4---
2024-05-21 11:04 amSSW 2 7------ 48.4- 43.9---
2024-05-21 10:54 am SW 4 6------ 48.0- 43.3---
2024-05-21 10:44 amSSW 4 7------ 47.8- 43.3---
2024-05-21 10:34 amSSW 4 6------ 48.0- 43.2---
2024-05-21 10:24 amSSW 4 5------ 48.0- 42.8---
2024-05-21 10:14 amSSW 4 6------ 48.0- 42.8---
2024-05-21 10:05 am S 4 7------ 48.4- 43.0---
2024-05-21 09:54 amSSW 2 5------ 48.9- 42.6---
2024-05-21 09:44 am S 2 3------ 48.6- 42.1---
2024-05-21 09:35 am S 1 3------ 48.4- 42.1---
2024-05-21 09:24 am- 0 2------ 48.2- 41.9---
2024-05-21 09:14 amESE 2 3------ 47.3- 41.5---
2024-05-21 09:05 am E 2 3------ 46.9- 41.5---
2024-05-21 08:55 amESE 2 4------ 46.6- 41.0---
2024-05-21 08:46 am SE 2 4------ 46.2- 40.8---
2024-05-21 08:35 am SE 2 4------ 46.0- 40.6---
2024-05-21 08:25 amESE 2 4------ 45.9- 40.8---
2024-05-21 08:14 amESE 2 3------ 45.9- 40.6---
2024-05-21 08:04 amESE 2 3------ 46.0- 40.8---
2024-05-21 07:55 am- 0 2------ 45.9- 41.0---
2024-05-21 07:44 am- 0 2------ 45.9- 40.6---
2024-05-21 07:34 amESE 1 3------ 45.7- 41.0---
2024-05-21 07:24 am E 2 4------ 45.3- 41.0---
2024-05-21 07:14 amESE 2 5------ 45.1- 41.4---
2024-05-21 07:04 amENE 2 4------ 45.1- 41.4---
2024-05-21 06:54 amENE 2 3------ 45.0- 41.0---
2024-05-21 06:45 am E 1 2------ 45.1- 40.6---
2024-05-21 06:34 amESE 2 4------ 45.1- 41.0---
2024-05-21 06:24 am E 2 3------ 45.3- 41.7---
2024-05-21 06:14 am E 1 2------ 45.3- 41.4---
2024-05-21 06:05 am E 1 2------ 45.1- 41.4---
2024-05-21 05:55 am E 1 2------ 45.1- 41.4---
2024-05-21 05:45 am E 2 2------ 45.0- 40.6---
2024-05-21 05:35 am E 2 4------ 45.0- 40.8---
2024-05-21 05:24 amESE 2 4------ 45.5- 40.8---
2024-05-21 05:15 am E 1 2------ 45.7- 41.0---
2024-05-21 05:04 amESE 1 3------ 46.0- 41.5---
2024-05-21 04:54 am E 1 2------ 46.0- 41.4---
2024-05-21 04:44 am- 0 2------ 46.0- 41.7---
2024-05-21 04:34 am- 0 1------ 46.0- 41.7---
2024-05-21 04:24 am N 1 3------ 46.0- 41.5---
2024-05-21 04:15 amENE 2 3------ 46.0- 41.2---
2024-05-21 04:04 amESE 2 3------ 46.0- 41.4---
2024-05-21 03:54 am E 2 4------ 46.0- 41.4---
2024-05-21 03:44 am E 3 4------ 46.0- 41.5---
2024-05-21 03:34 am E 2 3------ 46.2- 41.5---
2024-05-21 03:24 amNNE 1 2------ 46.2- 41.5---
2024-05-21 03:14 am- 0 2------ 46.2- 41.2---
2024-05-21 03:04 am E 1 3------ 45.9- 41.2---
2024-05-21 02:54 amESE 1 3------ 45.9- 41.5---
2024-05-21 02:44 am E 2 3------ 46.0- 41.0---
2024-05-21 02:35 amESE 2 4------ 46.0- 41.0---
2024-05-21 02:25 amESE 2 4------ 46.2- 41.2---
2024-05-21 02:14 amESE 2 4------ 46.4- 41.7---
2024-05-21 02:04 amESE 2 4------ 46.6- 42.1---
2024-05-21 01:55 am E 2 4------ 46.8- 42.1---
2024-05-21 01:44 am E 2 3------ 46.9- 41.9---
2024-05-21 01:25 am- 0 2------ 47.5- 42.4---
2024-05-21 01:14 amESE 2 4------ 47.5- 42.3---
2024-05-21 01:04 am E 3 4------ 47.5- 42.1---
2024-05-21 12:54 am E 3 4------ 47.3- 41.9---
2024-05-21 12:45 amENE 3 4------ 47.3- 41.9---
2024-05-21 12:25 am E 2 5------ 47.3- 43.0---
2024-05-21 12:16 am E 4 6------ 47.1- 42.6---
2024-05-21 12:05 am- 0 3------ 46.8- 41.9---
2024-05-20 11:55 pm NE 1 3------ 46.9- 41.7---
2024-05-20 11:45 pm NW 2 4------ 46.8- 40.6---
2024-05-20 11:35 pmWNW 2 4------ 46.8- 39.9---
2024-05-20 11:25 pm W 1 4------ 46.8- 39.6---
2024-05-20 11:15 pmWNW 2 4------ 46.6- 39.0---
2024-05-20 11:04 pmWSW 2 4------ 46.8- 38.8---
2024-05-20 10:54 pmWSW 1 3------ 47.1- 39.0---